Time;durP1;ratioP1;P1;durP2;ratioP2;P2;SDS_P1;SDS_P2;PMS_P1;PMS_P2;Temp;Humidity;BMP_temperature;BMP_pressure;BME280_temperature;BME280_humidity;BME280_pressure;Samples;Min_cycle;Max_cycle;Signal;HPM_P1;HPM_P2
2022/08/21 00:02:15;;;;;;;8.43;7.60;;;23.10;91.40;;;;;;6160215;23;20561;-87
2022/08/21 00:04:41;;;;;;;8.75;7.90;;;23.10;91.40;;;;;;6112068;23;20537;-87
2022/08/21 00:07:07;;;;;;;8.63;7.72;;;23.10;91.30;;;;;;6135639;23;20143;-87
2022/08/21 00:09:34;;;;;;;8.45;7.65;;;23.10;91.30;;;;;;6135580;23;20197;-87
2022/08/21 00:12:02;;;;;;;8.55;7.75;;;23.10;91.30;;;;;;6110500;23;20185;-87
2022/08/21 00:14:30;;;;;;;8.35;7.55;;;23.10;91.30;;;;;;6110123;23;20597;-87
2022/08/21 00:17:03;;;;;;;8.90;8.00;;;23.10;91.30;;;;;;6110091;23;20161;-87
2022/08/21 00:19:31;;;;;;;8.57;7.75;;;23.10;91.30;;;;;;6135711;23;20157;-87
2022/08/21 00:21:58;;;;;;;9.00;8.10;;;23.10;91.30;;;;;;6134628;23;20154;-87
2022/08/21 00:24:26;;;;;;;8.45;7.65;;;23.10;91.60;;;;;;6085970;23;20626;-87
2022/08/21 00:26:52;;;;;;;8.52;7.72;;;23.10;91.30;;;;;;6110061;23;20154;-87
2022/08/21 00:29:18;;;;;;;8.50;7.57;;;23.10;91.20;;;;;;6111039;23;20226;-87
2022/08/21 00:31:43;;;;;;;9.15;8.20;;;23.10;91.20;;;;;;6135363;23;20181;-87
2022/08/21 00:34:12;;;;;;;8.05;7.25;;;23.10;91.20;;;;;;6110700;23;20146;-88
2022/08/21 00:36:39;;;;;;;8.88;7.97;;;23.10;91.20;;;;;;6112609;23;20150;-87
2022/08/21 00:39:06;;;;;;;8.40;7.60;;;23.10;91.20;;;;;;6135647;23;20567;-88
2022/08/21 00:41:32;;;;;;;8.70;7.90;;;23.10;91.20;;;;;;6135628;23;20139;-87
2022/08/21 00:43:58;;;;;;;8.57;7.43;;;23.10;91.20;;;;;;6159743;23;20254;-87
2022/08/21 00:46:24;;;;;;;9.60;8.60;;;23.10;91.20;;;;;;6135586;23;20127;-87
2022/08/21 00:48:52;;;;;;;8.75;7.85;;;23.10;91.20;;;;;;6110834;23;20155;-87
2022/08/21 00:51:25;;;;;;;8.52;7.63;;;23.10;91.50;;;;;;6109626;23;20154;-87
2022/08/21 00:54:00;;;;;;;8.75;7.85;;;23.20;91.20;;;;;;6110630;23;20162;-87
2022/08/21 00:56:28;;;;;;;8.70;7.80;;;23.10;91.10;;;;;;6087823;23;20467;-87
2022/08/21 00:58:57;;;;;;;8.05;7.25;;;23.10;91.10;;;;;;6109779;23;20158;-87
2022/08/21 01:01:27;;;;;;;8.57;7.68;;;23.10;91.10;;;;;;6134574;23;20161;-87
2022/08/21 01:03:55;;;;;;;8.65;7.70;;;23.10;91.10;;;;;;6110714;23;20189;-87
2022/08/21 01:06:20;;;;;;;8.93;8.05;;;23.10;91.10;;;;;;6134204;23;20185;-87
2022/08/21 01:08:48;;;;;;;8.38;7.57;;;23.10;91.10;;;;;;6159900;23;20134;-87
2022/08/21 01:11:17;;;;;;;8.98;8.07;;;23.10;91.10;;;;;;6085510;23;20610;-87
2022/08/21 01:13:45;;;;;;;8.10;7.30;;;23.10;91.10;;;;;;6134421;23;20586;-87
2022/08/21 01:16:15;;;;;;;8.80;7.88;;;23.10;91.10;;;;;;6136279;23;20562;-87
2022/08/21 01:18:43;;;;;;;8.35;7.55;;;23.10;91.10;;;;;;6134402;23;20634;-87
2022/08/21 01:21:13;;;;;;;8.90;7.90;;;23.10;91.10;;;;;;6109595;23;20158;-87
2022/08/21 01:23:43;;;;;;;8.55;7.75;;;23.10;91.00;;;;;;6110296;23;20162;-87
2022/08/21 01:26:11;;;;;;;8.38;7.57;;;23.10;91.00;;;;;;6086741;23;20178;-87
2022/08/21 01:28:41;;;;;;;8.35;7.53;;;23.10;91.10;;;;;;6085707;23;20165;-87
2022/08/21 01:31:08;;;;;;;8.88;7.78;;;23.10;91.00;;;;;;6135748;23;20154;-88
2022/08/21 01:33:33;;;;;;;8.40;7.55;;;23.10;91.10;;;;;;6110618;23;20151;-87
2022/08/21 01:35:59;;;;;;;9.35;7.78;;;23.10;91.00;;;;;;6111632;23;20151;-87
2022/08/21 01:38:25;;;;;;;8.90;8.00;;;23.00;91.00;;;;;;6110484;23;20570;-87
2022/08/21 01:40:51;;;;;;;8.23;7.43;;;23.10;91.00;;;;;;6159446;23;20138;-88
2022/08/21 01:43:17;;;;;;;8.07;7.28;;;23.10;91.00;;;;;;6111216;23;20246;-87
2022/08/21 01:45:45;;;;;;;8.77;7.90;;;23.10;90.90;;;;;;6134474;23;20224;-87
2022/08/21 01:48:11;;;;;;;8.00;7.20;;;23.10;90.90;;;;;;6136222;23;20206;-87
2022/08/21 01:50:40;;;;;;;8.38;7.50;;;23.00;90.90;;;;;;6135066;23;20170;-87
2022/08/21 01:53:06;;;;;;;8.93;7.63;;;23.10;90.90;;;;;;6159696;23;20135;-87
2022/08/21 01:55:31;;;;;;;8.88;7.97;;;23.10;90.90;;;;;;6135292;23;20182;-87
2022/08/21 01:57:57;;;;;;;8.40;7.60;;;23.10;90.90;;;;;;6134524;23;20209;-87
2022/08/21 02:00:23;;;;;;;8.70;7.80;;;23.10;90.90;;;;;;6159129;23;20178;-87
2022/08/21 02:02:49;;;;;;;8.77;7.88;;;23.00;90.90;;;;;;6159736;23;20131;-87
2022/08/21 02:05:15;;;;;;;8.45;7.55;;;23.10;90.90;;;;;;6112405;23;20178;-87
2022/08/21 02:07:46;;;;;;;8.15;7.32;;;23.10;90.90;;;;;;6137012;23;20138;-87
2022/08/21 02:10:13;;;;;;;8.55;7.65;;;23.00;90.90;;;;;;6137052;23;20189;-87
2022/08/21 02:12:39;;;;;;;8.07;7.30;;;23.10;90.90;;;;;;6136968;23;20143;-86
2022/08/21 02:15:05;;;;;;;8.35;7.55;;;23.10;90.90;;;;;;6137297;23;20142;-87
2022/08/21 02:17:48;;;;;;;8.43;7.63;;;23.10;90.90;;;;;;6136687;23;20135;-86
2022/08/21 02:20:30;;;;;;;7.88;7.07;;;23.10;90.90;;;;;;6112500;23;20147;-88
2022/08/21 02:22:56;;;;;;;8.27;7.43;;;23.10;90.80;;;;;;6113540;23;20150;-87
2022/08/21 02:25:23;;;;;;;8.07;7.28;;;23.10;90.80;;;;;;6136551;23;20166;-88
2022/08/21 02:27:49;;;;;;;7.80;7.03;;;23.10;90.80;;;;;;6137202;23;20157;-87
2022/08/21 02:30:18;;;;;;;8.55;7.65;;;23.10;90.80;;;;;;6160936;23;20143;-87
2022/08/21 02:32:44;;;;;;;8.43;7.63;;;23.00;90.80;;;;;;6160912;23;20567;-87
2022/08/21 02:35:10;;;;;;;8.32;7.50;;;23.10;90.80;;;;;;6187267;23;20210;-87
2022/08/21 02:37:46;;;;;;;8.13;7.30;;;23.10;90.80;;;;;;6137217;23;20155;-86
2022/08/21 02:40:12;;;;;;;8.32;7.47;;;23.10;90.80;;;;;;6087993;23;20159;-87
2022/08/21 02:42:39;;;;;;;8.40;7.50;;;23.00;90.70;;;;;;6136395;23;20135;-87
2022/08/21 02:45:05;;;;;;;8.15;7.32;;;23.10;90.80;;;;;;6136886;23;20194;-87
2022/08/21 02:47:31;;;;;;;8.43;7.63;;;23.10;90.70;;;;;;6112380;23;20586;-87
2022/08/21 02:49:57;;;;;;;8.10;7.30;;;23.10;90.70;;;;;;6111843;23;20143;-87
2022/08/21 02:52:23;;;;;;;8.00;7.20;;;23.10;90.70;;;;;;6161266;23;20145;-87
2022/08/21 02:54:49;;;;;;;8.40;7.38;;;23.10;90.70;;;;;;6187412;23;20131;-87
2022/08/21 02:57:15;;;;;;;7.72;6.93;;;23.10;90.70;;;;;;6136406;23;20142;-87
2022/08/21 02:59:41;;;;;;;9.00;7.90;;;23.10;90.70;;;;;;6136148;23;20170;-87
2022/08/21 03:02:07;;;;;;;8.20;7.40;;;23.10;90.70;;;;;;6112555;23;20143;-87
2022/08/21 03:04:33;;;;;;;7.50;6.80;;;23.00;90.70;;;;;;6111923;23;20618;-87
2022/08/21 03:07:00;;;;;;;8.00;7.20;;;23.00;90.70;;;;;;6161096;23;20135;-87
2022/08/21 03:09:28;;;;;;;8.43;7.57;;;23.00;90.70;;;;;;6110614;23;20154;-87
2022/08/21 03:11:55;;;;;;;8.27;7.47;;;23.00;90.70;;;;;;6112565;23;20177;-87
2022/08/21 03:14:23;;;;;;;7.68;6.88;;;23.00;90.70;;;;;;6110814;23;20181;-87
2022/08/21 03:16:50;;;;;;;8.50;7.60;;;23.00;90.60;;;;;;6110682;23;20155;-87
2022/08/21 03:19:17;;;;;;;8.20;7.40;;;23.00;90.60;;;;;;6135111;23;20154;-88
2022/08/21 03:21:44;;;;;;;8.23;7.43;;;23.00;90.60;;;;;;6110623;23;20205;-87
2022/08/21 03:24:11;;;;;;;7.85;7.05;;;23.10;90.60;;;;;;6110715;23;20261;-87
2022/08/21 03:26:36;;;;;;;8.02;7.22;;;23.00;90.60;;;;;;6086438;23;20186;-87
2022/08/21 03:29:02;;;;;;;7.97;7.13;;;23.00;90.60;;;;;;6136375;23;20562;-87
2022/08/21 03:31:30;;;;;;;7.80;7.00;;;23.00;90.60;;;;;;6186806;23;20131;-87
2022/08/21 03:33:57;;;;;;;8.18;7.38;;;23.00;90.60;;;;;;6161107;23;20135;-87
2022/08/21 03:36:22;;;;;;;7.65;6.85;;;23.00;90.60;;;;;;6135900;23;20469;-88
2022/08/21 03:38:48;;;;;;;7.72;6.95;;;23.00;90.50;;;;;;6112003;23;20179;-87
2022/08/21 03:41:14;;;;;;;8.13;7.32;;;23.00;90.50;;;;;;6160275;23;20131;-87
2022/08/21 03:43:40;;;;;;;8.20;7.32;;;23.10;90.50;;;;;;6135983;23;20190;-87
2022/08/21 03:46:05;;;;;;;8.88;7.97;;;23.10;90.50;;;;;;6160886;23;20143;-87
2022/08/21 03:48:34;;;;;;;7.45;6.75;;;23.10;90.50;;;;;;6112301;23;20197;-88
2022/08/21 03:51:02;;;;;;;7.78;7.07;;;23.00;90.50;;;;;;6135255;23;20158;-87
2022/08/21 03:53:30;;;;;;;8.25;7.45;;;23.10;90.50;;;;;;6110738;23;20208;-87
2022/08/21 03:55:57;;;;;;;7.63;6.93;;;23.00;90.50;;;;;;6110697;23;20452;-87
2022/08/21 03:58:25;;;;;;;7.65;6.95;;;23.00;90.50;;;;;;6110690;23;20190;-87
2022/08/21 04:00:54;;;;;;;7.70;7.00;;;23.00;90.50;;;;;;6134376;23;20157;-87
2022/08/21 04:03:21;;;;;;;8.00;7.20;;;23.00;90.50;;;;;;6111193;23;20154;-87
2022/08/21 04:05:48;;;;;;;7.43;6.72;;;23.00;90.50;;;;;;6085792;23;20272;-87
2022/08/21 04:08:18;;;;;;;7.50;6.80;;;23.00;90.50;;;;;;6109991;23;20170;-87
2022/08/21 04:10:47;;;;;;;7.53;6.80;;;23.00;90.50;;;;;;6134704;23;20206;-87
2022/08/21 04:13:15;;;;;;;8.18;7.07;;;23.00;90.50;;;;;;6134878;23;20233;-87
2022/08/21 04:15:41;;;;;;;7.30;6.60;;;23.00;90.40;;;;;;6110252;23;20159;-87
2022/08/21 04:18:08;;;;;;;7.47;6.78;;;23.00;90.50;;;;;;6136047;23;20637;-87
2022/08/21 04:20:34;;;;;;;7.00;6.30;;;23.00;90.40;;;;;;6160220;23;20161;-87
2022/08/21 04:23:00;;;;;;;7.88;7.07;;;23.00;90.40;;;;;;6135671;23;20169;-87
2022/08/21 04:25:28;;;;;;;7.85;7.05;;;23.00;90.40;;;;;;6111140;23;20177;-87
2022/08/21 04:27:55;;;;;;;8.02;7.22;;;23.00;90.40;;;;;;6085801;23;20233;-87
2022/08/21 04:30:23;;;;;;;7.57;6.85;;;23.00;90.40;;;;;;6110057;23;20582;-87
2022/08/21 04:32:51;;;;;;;7.65;6.85;;;23.00;90.40;;;;;;6109918;23;20151;-87
2022/08/21 04:35:19;;;;;;;8.20;7.40;;;23.00;90.40;;;;;;6110270;23;20582;-87
2022/08/21 04:37:45;;;;;;;7.55;6.85;;;23.10;90.40;;;;;;6111376;23;20518;-87
2022/08/21 04:40:14;;;;;;;7.38;6.68;;;23.00;90.30;;;;;;6159658;23;20131;-87
2022/08/21 04:42:44;;;;;;;7.38;6.68;;;23.00;90.40;;;;;;6109851;23;20648;-87
2022/08/21 04:45:20;;;;;;;7.32;6.63;;;23.00;90.40;;;;;;6109939;23;20186;-87
2022/08/21 04:47:48;;;;;;;8.05;7.22;;;23.00;90.40;;;;;;6087750;23;20150;-87
2022/08/21 04:50:14;;;;;;;7.25;6.55;;;23.00;90.40;;;;;;6110037;23;20165;-87
2022/08/21 04:52:40;;;;;;;7.72;7.03;;;23.00;90.30;;;;;;6135639;23;20225;-87
2022/08/21 04:55:07;;;;;;;7.72;6.93;;;23.00;90.30;;;;;;6160144;23;20525;-87
2022/08/21 04:57:34;;;;;;;7.47;6.70;;;23.00;90.30;;;;;;6160178;23;20143;-87
2022/08/21 05:00:00;;;;;;;7.78;6.97;;;23.00;90.30;;;;;;6135783;23;20147;-87
2022/08/21 05:02:26;;;;;;;7.55;6.85;;;23.00;90.30;;;;;;6186345;23;20180;-87
2022/08/21 05:04:53;;;;;;;7.07;6.38;;;23.00;90.30;;;;;;6159885;23;20158;-87
2022/08/21 05:07:22;;;;;;;8.38;6.63;;;23.00;90.30;;;;;;6135467;23;20270;-88
2022/08/21 05:09:53;;;;;;;7.72;6.88;;;23.00;90.30;;;;;;6135442;23;20204;-87
2022/08/21 05:12:19;;;;;;;7.43;6.70;;;23.00;90.30;;;;;;6135364;23;20200;-87
2022/08/21 05:14:49;;;;;;;7.13;6.43;;;23.00;90.30;;;;;;6135336;23;20154;-87
2022/08/21 05:17:14;;;;;;;7.82;7.03;;;23.00;90.30;;;;;;6134303;23;20159;-87
2022/08/21 05:19:43;;;;;;;7.63;6.82;;;23.00;90.30;;;;;;6159616;23;20234;-87
2022/08/21 05:22:09;;;;;;;7.70;6.97;;;23.00;90.30;;;;;;6135379;23;20177;-88
2022/08/21 05:24:39;;;;;;;7.50;6.80;;;23.00;90.30;;;;;;6185679;23;20170;-87
2022/08/21 05:27:06;;;;;;;7.43;6.72;;;23.00;90.20;;;;;;6134243;23;20178;-87
2022/08/21 05:29:36;;;;;;;7.57;6.88;;;22.90;90.20;;;;;;6135505;23;20447;-87
2022/08/21 05:32:09;;;;;;;7.45;6.65;;;23.00;90.20;;;;;;6110042;23;20155;-87
2022/08/21 05:34:36;;;;;;;7.45;6.75;;;23.00;90.20;;;;;;6159464;23;20170;-88
2022/08/21 05:37:02;;;;;;;7.63;6.80;;;23.00;90.20;;;;;;6110328;23;20150;-87
2022/08/21 05:39:28;;;;;;;7.20;6.45;;;23.00;90.20;;;;;;6135040;23;20146;-87
2022/08/21 05:41:53;;;;;;;7.53;6.82;;;23.00;90.20;;;;;;6135208;23;20139;-87
2022/08/21 05:44:19;;;;;;;7.63;6.90;;;23.00;90.20;;;;;;6134662;23;20170;-87
2022/08/21 05:46:45;;;;;;;7.70;6.90;;;23.00;90.20;;;;;;6110723;23;20218;-87
2022/08/21 05:49:13;;;;;;;7.22;6.53;;;23.00;90.20;;;;;;6185917;23;20135;-87
2022/08/21 05:51:43;;;;;;;7.47;6.63;;;23.00;90.20;;;;;;6109749;23;20147;-87
2022/08/21 05:54:11;;;;;;;7.68;6.88;;;23.00;90.20;;;;;;6109525;23;20158;-87
2022/08/21 05:56:44;;;;;;;7.18;6.47;;;23.00;90.20;;;;;;6134229;23;20182;-87
2022/08/21 05:59:12;;;;;;;7.38;6.68;;;22.90;90.20;;;;;;6134663;23;20157;-88
2022/08/21 06:01:40;;;;;;;7.22;6.53;;;23.00;90.20;;;;;;6086169;23;20463;-87
2022/08/21 06:04:07;;;;;;;7.85;7.05;;;22.90;90.10;;;;;;6134028;23;20182;-87
2022/08/21 06:06:36;;;;;;;7.43;6.53;;;23.00;90.20;;;;;;6133878;23;20151;-87
2022/08/21 06:09:02;;;;;;;7.85;7.10;;;23.00;90.10;;;;;;6135226;23;20143;-88
2022/08/21 06:11:28;;;;;;;7.10;6.40;;;23.00;90.50;;;;;;6070325;23;20208;-87
2022/08/21 06:13:53;;;;;;;7.20;6.50;;;23.00;90.10;;;;;;6070691;23;20152;-87
2022/08/21 06:16:19;;;;;;;7.32;6.60;;;22.90;90.10;;;;;;6094737;23;20149;-87
2022/08/21 06:18:45;;;;;;;7.40;6.70;;;22.90;90.00;;;;;;6070504;23;20148;-87
2022/08/21 06:21:11;;;;;;;7.22;6.50;;;23.00;90.10;;;;;;6022969;23;20235;-87
2022/08/21 06:23:37;;;;;;;6.97;6.28;;;22.90;90.00;;;;;;6023462;23;20149;-87
2022/08/21 06:26:04;;;;;;;7.32;6.63;;;23.00;90.00;;;;;;6046718;23;20149;-87
2022/08/21 06:28:31;;;;;;;7.03;6.32;;;23.00;90.00;;;;;;6023365;23;20228;-87
2022/08/21 06:30:57;;;;;;;6.93;6.22;;;23.00;90.00;;;;;;6070296;23;20158;-87
2022/08/21 06:33:23;;;;;;;7.72;6.93;;;23.00;90.00;;;;;;6023070;23;20169;-87
2022/08/21 06:35:49;;;;;;;7.63;6.60;;;23.00;90.00;;;;;;6047060;23;20155;-87
2022/08/21 06:38:16;;;;;;;7.07;6.30;;;23.00;90.00;;;;;;6070490;23;20160;-87
2022/08/21 06:40:42;;;;;;;6.88;6.20;;;22.90;89.90;;;;;;6070551;23;20152;-88
2022/08/21 06:43:09;;;;;;;7.03;6.32;;;22.90;89.90;;;;;;6091614;23;20560;-88
2022/08/21 06:45:36;;;;;;;7.05;6.35;;;23.00;90.00;;;;;;6159075;23;20242;-87
2022/08/21 06:48:02;;;;;;;7.03;6.43;;;23.00;90.00;;;;;;6135045;23;20185;-87
2022/08/21 06:50:28;;;;;;;7.47;6.78;;;23.00;89.90;;;;;;6135268;23;20574;-87
2022/08/21 06:53:05;;;;;;;7.15;6.45;;;23.00;89.90;;;;;;6160942;23;20138;-87
2022/08/21 06:55:33;;;;;;;6.70;6.10;;;23.00;89.90;;;;;;6112326;23;20467;-87
2022/08/21 06:57:58;;;;;;;6.60;5.90;;;23.00;89.80;;;;;;6161345;23;20198;-87
2022/08/21 07:00:28;;;;;;;8.00;7.20;;;23.00;89.60;;;;;;6160825;23;20139;-88
2022/08/21 07:02:54;;;;;;;6.85;6.20;;;23.00;89.40;;;;;;6136846;23;20177;-88
2022/08/21 07:05:26;;;;;;;6.70;5.95;;;23.00;89.50;;;;;;6136966;23;20249;-87
2022/08/21 07:07:56;;;;;;;7.05;6.35;;;23.10;89.40;;;;;;6135846;23;20548;-87
2022/08/21 07:10:24;;;;;;;7.25;6.53;;;23.10;89.20;;;;;;6110653;23;20529;-87
2022/08/21 07:12:52;;;;;;;6.78;6.07;;;23.10;89.00;;;;;;6136350;23;20134;-87
2022/08/21 07:15:20;;;;;;;6.55;5.85;;;23.00;88.40;;;;;;6136936;23;20618;-87
2022/08/21 07:17:47;;;;;;;6.55;5.50;;;23.10;87.60;;;;;;6110569;23;20182;-87
2022/08/21 07:20:15;;;;;;;6.13;5.53;;;23.00;86.80;;;;;;6110830;23;20158;-87
2022/08/21 07:22:42;;;;;;;5.75;5.15;;;23.00;86.30;;;;;;6135553;23;20158;-87
2022/08/21 07:25:11;;;;;;;5.88;4.75;;;23.00;85.60;;;;;;6134965;23;20264;-87
2022/08/21 07:27:38;;;;;;;5.13;4.63;;;22.90;85.60;;;;;;6112333;23;20146;-87
2022/08/21 07:30:05;;;;;;;5.20;4.70;;;22.90;85.20;;;;;;6111462;23;20135;-87
2022/08/21 07:32:30;;;;;;;5.97;4.72;;;22.80;85.10;;;;;;6111648;23;20478;-87
2022/08/21 07:34:56;;;;;;;5.53;5.03;;;22.80;85.00;;;;;;6111863;23;20143;-87
2022/08/21 07:37:22;;;;;;;5.20;4.70;;;22.80;85.10;;;;;;6135804;23;20139;-87
2022/08/21 07:39:49;;;;;;;5.28;4.78;;;22.70;85.20;;;;;;6160904;23;20153;-87
2022/08/21 07:42:19;;;;;;;4.90;4.40;;;22.70;85.00;;;;;;6112134;23;20222;-88
2022/08/21 07:44:45;;;;;;;5.10;4.50;;;22.70;85.00;;;;;;6135498;23;20170;-88
2022/08/21 07:47:11;;;;;;;4.70;4.30;;;22.70;84.90;;;;;;6186690;23;20187;-87
2022/08/21 07:49:37;;;;;;;5.38;4.25;;;22.70;84.30;;;;;;6136362;23;20139;-88
2022/08/21 07:52:03;;;;;;;4.72;4.00;;;22.60;84.60;;;;;;6111459;23;20449;-86
2022/08/21 07:54:35;;;;;;;4.60;4.20;;;22.60;84.10;;;;;;6112335;23;20154;-88
2022/08/21 07:57:04;;;;;;;4.93;4.43;;;22.60;84.40;;;;;;6066018;23;20163;-89
2022/08/21 07:59:29;;;;;;;4.15;3.80;;;22.60;84.10;;;;;;6160431;23;20462;-88
2022/08/21 08:01:58;;;;;;;4.32;3.92;;;22.60;84.00;;;;;;6112010;23;20146;-88
2022/08/21 08:04:26;;;;;;;4.68;4.20;;;22.60;84.00;;;;;;6086738;23;20653;-87
2022/08/21 08:06:52;;;;;;;4.18;3.80;;;22.50;84.00;;;;;;6135494;23;20155;-87
2022/08/21 08:09:18;;;;;;;4.45;4.05;;;22.60;83.60;;;;;;6135549;23;20158;-87
2022/08/21 08:11:43;;;;;;;4.30;3.80;;;22.50;83.50;;;;;;6136174;23;20145;-87
2022/08/21 08:14:25;;;;;;;3.90;3.55;;;22.60;83.60;;;;;;6109724;23;20155;-87
2022/08/21 08:16:52;;;;;;;3.83;3.50;;;22.50;83.10;;;;;;6111588;23;20146;-87
2022/08/21 08:19:17;;;;;;;5.68;3.42;;;22.50;83.10;;;;;;6160571;23;20567;-87
2022/08/21 08:21:43;;;;;;;6.93;3.70;;;22.50;83.10;;;;;;6135646;23;20204;-87
2022/08/21 08:24:09;;;;;;;4.05;3.65;;;22.50;82.90;;;;;;6135857;23;20181;-87
2022/08/21 08:26:34;;;;;;;3.95;3.55;;;22.50;83.00;;;;;;6160434;23;20214;-87
2022/08/21 08:29:00;;;;;;;4.10;3.70;;;22.50;82.90;;;;;;6135370;23;20225;-87
2022/08/21 08:31:25;;;;;;;3.83;3.53;;;22.50;82.80;;;;;;6135612;23;20139;-88
2022/08/21 08:33:55;;;;;;;3.78;3.47;;;22.50;82.50;;;;;;6135503;23;20143;-87
2022/08/21 08:36:31;;;;;;;3.85;3.47;;;22.50;82.20;;;;;;6086080;23;20618;-87
2022/08/21 08:39:00;;;;;;;6.60;3.45;;;22.50;82.10;;;;;;6086034;23;20295;-87
2022/08/21 08:41:29;;;;;;;3.55;3.25;;;22.50;82.00;;;;;;6110444;23;20154;-87
2022/08/21 08:44:01;;;;;;;3.40;3.10;;;22.60;82.10;;;;;;6134536;23;20155;-87
2022/08/21 08:46:42;;;;;;;4.53;3.30;;;22.60;81.80;;;;;;6086764;23;20459;-87
2022/08/21 08:49:20;;;;;;;4.15;3.75;;;22.50;81.60;;;;;;6110908;23;20147;-87
2022/08/21 08:51:50;;;;;;;4.03;3.63;;;22.60;81.60;;;;;;6160145;23;20131;-87
2022/08/21 08:54:21;;;;;;;4.03;3.28;;;22.50;81.70;;;;;;6136395;23;20551;-87
2022/08/21 08:56:52;;;;;;;4.10;3.35;;;22.50;81.50;;;;;;6111378;23;20143;-87
2022/08/21 08:59:20;;;;;;;3.78;3.22;;;22.50;81.40;;;;;;6135828;23;20161;-87
2022/08/21 09:01:46;;;;;;;3.83;3.38;;;22.60;81.30;;;;;;6111195;23;20150;-87
2022/08/21 09:04:13;;;;;;;3.58;3.28;;;22.60;80.90;;;;;;6110812;23;20170;-87
2022/08/21 09:06:53;;;;;;;3.70;3.40;;;22.50;81.00;;;;;;6135614;23;20142;-87
2022/08/21 09:09:34;;;;;;;4.57;3.70;;;22.60;80.90;;;;;;6135194;23;20213;-87
2022/08/21 09:12:04;;;;;;;3.38;3.08;;;22.60;80.90;;;;;;6135436;23;20158;-87
2022/08/21 09:14:47;;;;;;;3.35;3.05;;;22.60;80.80;;;;;;6086085;23;20489;-87
2022/08/21 09:17:33;;;;;;;3.55;3.25;;;22.70;80.40;;;;;;6137196;23;20169;-87
2022/08/21 09:20:18;;;;;;;3.90;3.50;;;22.70;80.40;;;;;;6110020;23;20151;-87
2022/08/21 09:23:11;;;;;;;3.53;3.20;;;22.70;79.80;;;;;;6109561;23;20216;-87
2022/08/21 09:26:10;;;;;;;3.40;3.10;;;22.80;79.60;;;;;;6140177;23;20305;-88
2022/08/21 09:28:38;;;;;;;3.67;3.38;;;22.70;79.60;;;;;;6159443;23;20554;-87
2022/08/21 09:31:06;;;;;;;3.97;3.60;;;22.70;79.80;;;;;;6135053;23;20178;-87
2022/08/21 09:33:32;;;;;;;3.90;3.50;;;22.70;79.90;;;;;;6135729;23;20218;-87
2022/08/21 09:35:58;;;;;;;3.45;3.15;;;22.70;80.00;;;;;;6110093;23;20186;-86
2022/08/21 09:38:26;;;;;;;3.30;3.00;;;22.70;79.50;;;;;;6134314;23;20591;-86
2022/08/21 09:40:58;;;;;;;4.18;3.25;;;22.70;79.00;;;;;;6111414;23;20204;-87
2022/08/21 09:43:25;;;;;;;3.42;3.10;;;22.70;78.90;;;;;;6110679;23;20225;-86
2022/08/21 09:46:09;;;;;;;3.55;3.17;;;22.80;78.60;;;;;;6134638;23;20232;-86
2022/08/21 09:48:45;;;;;;;3.40;3.10;;;22.80;78.40;;;;;;6159277;23;20217;-86
2022/08/21 09:51:17;;;;;;;3.80;3.28;;;22.70;77.80;;;;;;6111943;23;20225;-86
2022/08/21 09:53:48;;;;;;;2.75;2.55;;;22.80;77.40;;;;;;6111968;23;20153;-86
2022/08/21 09:59:26;;;;;;;3.05;2.65;;;22.80;76.60;;;;;;6170434;23;20221;-86
2022/08/21 10:01:56;;;;;;;3.17;2.88;;;22.70;76.30;;;;;;6136489;23;20183;-88
2022/08/21 10:04:34;;;;;;;4.57;3.15;;;22.80;76.30;;;;;;6086530;23;20174;-86
2022/08/21 10:07:13;;;;;;;4.70;3.10;;;22.80;76.20;;;;;;6087780;23;20158;-87
2022/08/21 10:09:42;;;;;;;4.63;2.97;;;22.80;76.20;;;;;;6136359;23;20502;-86
2022/08/21 10:12:17;;;;;;;3.50;2.85;;;22.70;75.70;;;;;;6112149;23;20230;-87
2022/08/21 10:15:12;;;;;;;3.33;2.83;;;22.70;75.20;;;;;;6134643;23;20244;-86
2022/08/21 10:18:01;;;;;;;3.50;2.88;;;22.70;74.70;;;;;;6087443;23;20154;-86
2022/08/21 10:20:38;;;;;;;3.25;2.95;;;22.80;74.10;;;;;;6089064;23;20161;-86
2022/08/21 10:23:33;;;;;;;3.25;2.95;;;22.80;74.50;;;;;;6134441;23;20154;-87
2022/08/21 10:26:23;;;;;;;2.65;2.45;;;22.80;74.30;;;;;;6094770;23;20200;-87
2022/08/21 10:29:24;;;;;;;2.72;2.50;;;22.90;73.90;;;;;;6165337;23;20138;-87
2022/08/21 10:32:13;;;;;;;3.85;2.90;;;22.80;73.80;;;;;;6141172;23;20150;-87
2022/08/21 10:35:13;;;;;;;3.03;2.72;;;22.80;73.40;;;;;;6165479;23;20135;-86
2022/08/21 10:37:48;;;;;;;3.00;2.70;;;22.80;73.60;;;;;;6144076;23;20150;-86
2022/08/21 10:40:26;;;;;;;3.08;2.78;;;22.80;73.60;;;;;;6137457;23;20130;-86
2022/08/21 10:43:21;;;;;;;3.10;2.80;;;22.80;73.70;;;;;;6136062;23;20154;-87
2022/08/21 10:46:04;;;;;;;2.75;2.53;;;22.80;73.40;;;;;;6160594;23;20234;-87
2022/08/21 10:48:44;;;;;;;2.95;2.75;;;22.80;73.00;;;;;;6163361;23;20218;-86
2022/08/21 10:51:18;;;;;;;2.70;2.50;;;22.80;73.50;;;;;;6111081;23;20521;-87
2022/08/21 10:54:10;;;;;;;3.08;2.88;;;22.80;72.50;;;;;;6135932;23;20150;-87
2022/08/21 10:56:41;;;;;;;2.83;2.45;;;22.80;72.10;;;;;;6045310;23;20233;-86
2022/08/21 10:59:29;;;;;;;2.90;2.70;;;22.90;72.10;;;;;;6110804;23;20233;-87
2022/08/21 11:02:14;;;;;;;2.60;2.40;;;22.80;72.30;;;;;;6116074;23;20158;-87
2022/08/21 11:04:51;;;;;;;2.40;2.20;;;22.90;72.10;;;;;;6089471;23;20506;-87
2022/08/21 11:07:26;;;;;;;2.45;2.25;;;22.90;71.40;;;;;;6136755;23;20131;-87
2022/08/21 11:09:51;;;;;;;2.63;2.28;;;22.90;70.80;;;;;;6112359;23;20204;-86
2022/08/21 11:12:35;;;;;;;2.45;2.25;;;23.00;70.50;;;;;;6136066;23;20204;-86
2022/08/21 11:15:15;;;;;;;2.90;2.20;;;23.10;70.10;;;;;;6116199;23;20181;-86
2022/08/21 11:17:48;;;;;;;2.60;2.40;;;23.10;69.50;;;;;;6140082;23;20221;-86
2022/08/21 11:20:26;;;;;;;2.58;2.38;;;23.20;69.60;;;;;;6111555;23;20170;-86
2022/08/21 11:23:09;;;;;;;2.47;2.28;;;23.20;69.60;;;;;;6138325;23;20135;-87
2022/08/21 11:25:37;;;;;;;2.40;2.20;;;23.20;69.60;;;;;;6160215;23;20333;-86
2022/08/21 11:28:15;;;;;;;2.80;2.60;;;23.30;69.20;;;;;;6135881;23;20590;-86
2022/08/21 11:30:46;;;;;;;3.20;2.55;;;23.30;69.40;;;;;;6112152;23;20480;-87
2022/08/21 11:33:29;;;;;;;2.80;2.60;;;23.20;69.40;;;;;;6161542;23;20135;-87
2022/08/21 11:36:09;;;;;;;2.90;2.17;;;23.20;69.10;;;;;;6133597;23;20155;-86
2022/08/21 11:38:47;;;;;;;3.38;2.63;;;23.20;69.40;;;;;;6112495;23;20155;-86
2022/08/21 11:41:27;;;;;;;3.00;2.67;;;23.10;69.80;;;;;;6138215;23;20149;-87
2022/08/21 11:44:01;;;;;;;2.78;2.45;;;23.10;69.70;;;;;;6113430;23;20161;-88
2022/08/21 11:46:49;;;;;;;2.42;2.22;;;23.10;69.50;;;;;;6112512;23;20546;-87
2022/08/21 11:49:47;;;;;;;2.70;2.50;;;23.10;69.50;;;;;;6160257;23;20155;-86
2022/08/21 11:52:21;;;;;;;2.53;2.33;;;23.10;69.10;;;;;;6159985;23;20599;-86
2022/08/21 11:54:58;;;;;;;2.85;2.65;;;23.00;69.20;;;;;;6136097;23;20139;-87
2022/08/21 11:57:34;;;;;;;2.75;2.53;;;23.00;69.10;;;;;;6137349;23;20169;-87
2022/08/21 12:00:08;;;;;;;2.45;2.25;;;23.00;69.00;;;;;;6137247;23;20474;-86
2022/08/21 12:02:36;;;;;;;2.58;2.35;;;23.00;68.90;;;;;;6137071;23;20135;-86
2022/08/21 12:05:05;;;;;;;2.58;2.38;;;23.00;68.70;;;;;;6135472;23;20163;-86
2022/08/21 12:07:40;;;;;;;2.50;2.30;;;23.00;68.70;;;;;;6111947;23;20159;-86
2022/08/21 12:10:09;;;;;;;2.60;2.40;;;23.00;68.70;;;;;;6135514;23;20186;-86
2022/08/21 12:12:37;;;;;;;2.70;2.50;;;23.00;68.60;;;;;;6111905;23;20518;-87
2022/08/21 12:15:18;;;;;;;2.78;2.50;;;23.00;68.40;;;;;;6111209;23;20508;-86
2022/08/21 12:18:04;;;;;;;2.63;2.42;;;23.00;68.20;;;;;;6137901;23;20163;-86
2022/08/21 12:20:59;;;;;;;2.47;2.28;;;23.00;67.90;;;;;;6135566;23;20456;-87
2022/08/21 12:23:30;;;;;;;2.22;2.03;;;23.10;67.40;;;;;;6163085;23;20166;-86
2022/08/21 12:26:18;;;;;;;2.45;2.25;;;23.20;67.10;;;;;;6111252;23;20245;-86
2022/08/21 12:28:44;;;;;;;2.00;1.90;;;23.30;67.00;;;;;;6114754;23;20514;-86
2022/08/21 12:31:18;;;;;;;2.88;2.53;;;23.30;66.50;;;;;;6135512;23;20139;-87
2022/08/21 12:33:53;;;;;;;3.05;2.42;;;23.40;66.70;;;;;;6110816;23;20529;-86
2022/08/21 12:36:22;;;;;;;2.97;2.67;;;23.40;66.70;;;;;;6111920;23;20579;-86
2022/08/21 12:38:52;;;;;;;2.90;2.70;;;23.30;66.20;;;;;;6137626;23;20143;-86
2022/08/21 12:41:22;;;;;;;3.25;2.40;;;23.40;66.70;;;;;;6111217;23;20147;-86
2022/08/21 12:43:57;;;;;;;2.53;2.35;;;23.40;66.10;;;;;;6112255;23;20143;-86
2022/08/21 12:46:30;;;;;;;3.45;2.40;;;23.40;66.00;;;;;;6112426;23;20174;-86
2022/08/21 12:49:00;;;;;;;2.50;2.30;;;23.40;66.70;;;;;;6110713;23;20151;-86
2022/08/21 12:51:31;;;;;;;2.92;2.72;;;23.40;65.90;;;;;;6135325;23;20201;-86
2022/08/21 12:53:58;;;;;;;2.70;2.30;;;23.40;67.20;;;;;;6159532;23;20142;-87
2022/08/21 12:56:25;;;;;;;2.67;2.47;;;23.40;65.30;;;;;;6110807;23;20150;-86
2022/08/21 12:58:55;;;;;;;2.72;2.53;;;23.40;65.20;;;;;;6159281;23;20135;-87
2022/08/21 13:01:39;;;;;;;2.97;2.78;;;23.40;65.40;;;;;;6110045;23;20146;-87
2022/08/21 13:04:15;;;;;;;2.55;2.35;;;23.40;65.90;;;;;;6131694;23;20143;-86
2022/08/21 13:06:44;;;;;;;2.55;2.35;;;23.40;64.90;;;;;;6133025;23;20127;-87
2022/08/21 13:09:15;;;;;;;2.88;2.60;;;23.40;64.40;;;;;;6043664;23;20148;-86